Time;durP1;ratioP1;P1;durP2;ratioP2;P2;SDS_P1;SDS_P2;PMS_P1;PMS_P2;Temp;Humidity;BMP_temperature;BMP_pressure;BME280_temperature;BME280_humidity;BME280_pressure;Samples;Min_cycle;Max_cycle;Signal;HPM_P1;HPM_P2
2022/01/12 00:00:10;;;;;;;62.03;23.50;;;3.50;99.90;;;;;;4948198;29;20419;-65
2022/01/12 00:02:36;;;;;;;74.43;25.60;;;3.50;99.90;;;;;;4931171;29;20047;-65
2022/01/12 00:05:02;;;;;;;81.88;26.80;;;3.50;99.90;;;;;;4947386;28;20063;-66
2022/01/12 00:07:28;;;;;;;77.60;26.85;;;3.50;99.90;;;;;;4946937;29;20046;-65
2022/01/12 00:09:54;;;;;;;79.43;25.52;;;3.50;99.90;;;;;;4956188;28;20050;-65
2022/01/12 00:12:19;;;;;;;72.05;24.70;;;3.50;99.90;;;;;;4947193;29;20054;-65
2022/01/12 00:14:45;;;;;;;75.10;27.83;;;3.60;99.90;;;;;;4949195;29;20039;-65
2022/01/12 00:17:11;;;;;;;74.13;25.52;;;3.60;99.90;;;;;;4947334;29;20050;-65
2022/01/12 00:19:37;;;;;;;96.97;27.40;;;3.60;99.90;;;;;;4948793;29;20557;-65
2022/01/12 00:22:02;;;;;;;97.22;30.00;;;3.50;99.90;;;;;;4947890;29;20533;-65
2022/01/12 00:24:41;;;;;;;83.80;25.27;;;3.60;99.90;;;;;;4930419;29;20054;-69
2022/01/12 00:35:20;;;;;;;64.68;23.30;;;3.60;99.90;;;;;;4948171;29;20047;-65
2022/01/12 00:37:45;;;;;;;101.25;29.38;;;3.60;99.90;;;;;;4946319;29;20043;-65
2022/01/12 00:40:12;;;;;;;114.80;30.02;;;3.60;99.90;;;;;;4948818;29;20470;-65
2022/01/12 00:42:38;;;;;;;82.93;26.88;;;3.70;99.90;;;;;;4929730;29;20051;-65
2022/01/12 00:45:04;;;;;;;127.70;30.42;;;3.70;99.90;;;;;;4948664;29;20490;-65
2022/01/12 00:47:30;;;;;;;126.35;31.60;;;3.70;99.90;;;;;;4947206;29;20121;-65
2022/01/12 00:49:56;;;;;;;105.25;30.90;;;3.60;99.90;;;;;;4947911;29;20515;-65
2022/01/12 00:52:22;;;;;;;132.23;31.17;;;3.70;99.90;;;;;;4929903;29;20047;-65
2022/01/12 00:54:47;;;;;;;106.30;30.13;;;3.70;99.90;;;;;;4948061;29;20552;-65
2022/01/12 00:57:13;;;;;;;111.25;29.50;;;3.70;99.90;;;;;;4930999;29;20066;-67
2022/01/12 00:59:39;;;;;;;107.43;27.58;;;3.70;99.90;;;;;;4949200;28;20047;-65
2022/01/12 01:02:04;;;;;;;125.75;28.35;;;3.70;99.90;;;;;;4950013;29;20549;-65
2022/01/12 01:04:30;;;;;;;170.25;32.35;;;3.70;99.90;;;;;;4950730;29;20047;-65
2022/01/12 01:06:56;;;;;;;157.82;31.23;;;3.70;99.90;;;;;;4935190;29;20410;-65
2022/01/12 01:09:23;;;;;;;165.68;33.25;;;3.70;99.90;;;;;;4950860;29;20057;-65
2022/01/12 01:11:50;;;;;;;160.82;30.67;;;3.70;99.90;;;;;;4951912;29;20047;-65
2022/01/12 01:14:25;;;;;;;180.38;31.95;;;3.70;99.90;;;;;;4950535;29;20062;-65
2022/01/12 01:17:16;;;;;;;111.07;25.67;;;3.70;99.90;;;;;;4951004;29;20530;-65
2022/01/12 01:27:50;;;;;;;127.07;23.55;;;3.80;99.90;;;;;;4952490;29;20043;-65
2022/01/12 01:30:16;;;;;;;100.53;23.38;;;3.80;99.90;;;;;;4935066;29;20089;-65
2022/01/12 01:32:43;;;;;;;104.55;24.48;;;3.80;99.90;;;;;;4951569;29;20051;-65
2022/01/12 01:35:09;;;;;;;109.65;22.45;;;3.80;99.90;;;;;;4933330;29;20053;-65
2022/01/12 01:37:35;;;;;;;74.13;22.42;;;3.80;99.90;;;;;;4951350;29;20508;-65
2022/01/12 01:40:02;;;;;;;137.48;25.85;;;3.90;99.90;;;;;;4950654;29;20127;-65
2022/01/12 01:42:42;;;;;;;135.13;26.20;;;3.80;99.90;;;;;;4933427;29;20047;-65
2022/01/12 01:53:22;;;;;;;211.75;28.00;;;3.80;99.90;;;;;;4938121;29;20047;-66
2022/01/12 01:55:50;;;;;;;219.60;28.23;;;3.80;99.90;;;;;;4930789;29;20074;-65
2022/01/12 01:58:16;;;;;;;275.75;32.13;;;3.90;99.90;;;;;;4939533;29;20573;-65
2022/01/12 02:00:42;;;;;;;199.93;26.02;;;3.80;99.90;;;;;;4913343;29;20051;-65
2022/01/12 02:03:08;;;;;;;328.92;32.17;;;3.80;99.90;;;;;;4932190;29;20059;-65
2022/01/12 02:05:34;;;;;;;313.75;29.77;;;3.80;99.90;;;;;;4930841;29;20039;-65
2022/01/12 02:08:00;;;;;;;206.32;22.95;;;3.80;99.90;;;;;;4931771;29;20122;-65
2022/01/12 02:10:26;;;;;;;178.20;24.70;;;3.80;99.90;;;;;;4913786;29;20079;-66
2022/01/12 02:12:52;;;;;;;156.50;23.13;;;3.80;99.90;;;;;;4920855;29;20505;-65
2022/01/12 02:15:22;;;;;;;93.88;23.30;;;3.80;99.90;;;;;;4932151;29;20545;-65
2022/01/12 02:37:13;;;;;;;115.05;28.45;;;3.90;99.90;;;;;;4931187;29;20048;-68
2022/01/12 02:42:18;;;;;;;79.55;23.90;;;3.90;99.90;;;;;;4913782;29;20050;-65
2022/01/12 02:53:43;;;;;;;123.20;30.20;;;4.00;99.90;;;;;;4948029;29;20114;-66
2022/01/12 02:55:44;;;;;;;166.88;33.15;;;4.00;99.90;;;;;;4940967;28;20051;-66
2022/01/12 02:58:10;;;;;;;159.18;28.95;;;3.90;99.90;;;;;;4937821;29;20047;-65
2022/01/12 03:01:02;;;;;;;252.85;32.30;;;3.80;99.90;;;;;;4956732;28;20043;-65
2022/01/12 03:03:31;;;;;;;222.70;28.70;;;3.80;99.90;;;;;;4952128;28;20055;-65
2022/01/12 03:06:00;;;;;;;256.70;25.52;;;3.70;99.90;;;;;;4956354;28;20125;-65
2022/01/12 03:08:27;;;;;;;662.97;36.85;;;3.70;99.90;;;;;;4949815;29;20047;-65
2022/01/12 03:10:54;;;;;;;844.72;44.22;;;3.70;99.90;;;;;;4949487;29;20486;-65
2022/01/12 03:13:21;;;;;;;812.42;39.95;;;3.60;99.90;;;;;;4934988;28;20119;-65
2022/01/12 03:15:48;;;;;;;845.17;43.28;;;3.70;99.90;;;;;;4953652;28;20065;-65
2022/01/12 03:18:15;;;;;;;835.30;38.85;;;3.60;99.90;;;;;;4948917;29;20067;-65
2022/01/12 03:20:41;;;;;;;830.75;41.15;;;3.60;99.90;;;;;;4949358;28;20383;-65
2022/01/12 03:23:07;;;;;;;936.85;44.25;;;3.60;99.90;;;;;;4930103;29;20048;-65
2022/01/12 03:25:33;;;;;;;811.60;39.90;;;3.60;99.90;;;;;;4947674;29;20047;-65
2022/01/12 03:28:01;;;;;;;887.65;44.15;;;3.60;99.90;;;;;;4947775;28;20039;-65
2022/01/12 03:30:34;;;;;;;665.15;35.65;;;3.50;99.90;;;;;;4949147;29;20059;-65
2022/01/12 03:33:13;;;;;;;995.67;44.33;;;3.50;99.90;;;;;;4928792;29;20121;-65
2022/01/12 03:35:51;;;;;;;863.10;37.58;;;3.40;99.90;;;;;;4926914;29;20407;-65
2022/01/12 03:38:20;;;;;;;1187.00;50.45;;;3.40;99.90;;;;;;4949573;29;20083;-65
2022/01/12 03:40:47;;;;;;;869.00;36.05;;;3.40;99.90;;;;;;4931627;29;20058;-65
2022/01/12 03:43:13;;;;;;;941.05;38.65;;;3.30;99.90;;;;;;4947348;29;20489;-66
2022/01/12 03:45:38;;;;;;;839.30;36.90;;;3.30;99.90;;;;;;4947248;28;20027;-65
2022/01/12 03:48:04;;;;;;;671.55;30.10;;;3.30;99.90;;;;;;4947717;29;20051;-65
2022/01/12 03:50:30;;;;;;;701.25;30.50;;;3.20;99.90;;;;;;4932382;29;20499;-65
2022/01/12 03:52:57;;;;;;;690.05;32.08;;;3.20;99.90;;;;;;4947804;29;20058;-65
2022/01/12 03:55:22;;;;;;;757.63;33.95;;;3.10;99.90;;;;;;4949380;29;20078;-65
2022/01/12 03:57:48;;;;;;;930.70;42.97;;;3.00;99.90;;;;;;4930591;29;20059;-66
2022/01/12 04:00:14;;;;;;;502.48;27.33;;;3.00;99.90;;;;;;4948974;29;20499;-65
2022/01/12 04:02:40;;;;;;;591.35;26.88;;;2.90;99.90;;;;;;4931704;29;20047;-65
2022/01/12 04:05:12;;;;;;;710.83;28.83;;;2.90;99.90;;;;;;4930012;29;20058;-65
2022/01/12 04:10:22;;;;;;;768.28;32.60;;;2.90;99.90;;;;;;4948076;29;20486;-66
2022/01/12 04:12:48;;;;;;;599.42;27.92;;;2.90;99.90;;;;;;4915710;29;20058;-65
2022/01/12 04:15:14;;;;;;;530.55;25.50;;;2.90;99.90;;;;;;4948190;29;20073;-65
2022/01/12 04:17:39;;;;;;;482.48;26.27;;;2.80;99.90;;;;;;4931179;29;20449;-65
2022/01/12 04:20:05;;;;;;;448.77;24.48;;;2.90;99.90;;;;;;4949063;29;20075;-66
2022/01/12 04:25:17;;;;;;;512.30;29.63;;;2.90;99.90;;;;;;4932071;29;20091;-65
2022/01/12 04:27:43;;;;;;;298.45;22.05;;;2.90;99.90;;;;;;4947110;29;20051;-65
2022/01/12 04:30:09;;;;;;;415.92;24.80;;;2.90;99.90;;;;;;4948873;29;20556;-68
2022/01/12 04:32:40;;;;;;;501.60;27.63;;;3.00;99.90;;;;;;4930507;29;20450;-65
2022/01/12 04:35:06;;;;;;;330.25;22.65;;;3.00;99.90;;;;;;4947661;29;20051;-65
2022/01/12 04:37:32;;;;;;;301.92;22.13;;;3.00;99.90;;;;;;4931810;29;20440;-65
2022/01/12 04:39:58;;;;;;;407.88;24.50;;;3.00;99.90;;;;;;4929912;29;20047;-65
2022/01/12 04:42:24;;;;;;;445.58;23.05;;;3.00;99.90;;;;;;4915652;29;20450;-66
2022/01/12 04:44:59;;;;;;;464.20;27.25;;;3.10;99.90;;;;;;4946772;29;20051;-65
2022/01/12 04:48:09;;;;;;;564.72;26.35;;;3.10;99.90;;;;;;4948419;29;20035;-65
2022/01/12 04:50:14;;;;;;;605.25;26.92;;;3.10;99.90;;;;;;4933424;29;20059;-69
2022/01/12 04:52:41;;;;;;;833.78;32.60;;;3.00;99.90;;;;;;4929731;29;20494;-65
2022/01/12 04:55:07;;;;;;;851.50;36.63;;;3.00;99.90;;;;;;4946795;29;20126;-66
2022/01/12 04:57:33;;;;;;;990.92;37.00;;;3.00;99.90;;;;;;4928195;28;20047;-65
2022/01/12 05:00:07;;;;;;;811.90;29.25;;;3.00;99.90;;;;;;4962229;28;20061;-65
2022/01/12 05:08:20;;;;;;;695.00;26.63;;;2.80;99.90;;;;;;4947915;29;20470;-65
2022/01/12 05:13:31;;;;;;;556.30;22.50;;;2.80;99.90;;;;;;4948616;29;20043;-71
2022/01/12 05:15:58;;;;;;;554.42;20.50;;;2.70;99.90;;;;;;4948054;29;20078;-65
2022/01/12 05:18:24;;;;;;;277.33;14.15;;;2.60;99.90;;;;;;4930009;29;20122;-65
2022/01/12 05:20:50;;;;;;;358.73;19.38;;;2.60;99.90;;;;;;4949707;28;20062;-65
2022/01/12 05:23:16;;;;;;;443.27;18.52;;;2.60;99.90;;;;;;4929380;29;20051;-65
2022/01/12 05:25:42;;;;;;;447.30;19.40;;;2.50;99.90;;;;;;4948571;28;20560;-66
2022/01/12 05:28:08;;;;;;;470.58;18.27;;;2.50;99.90;;;;;;4929206;29;20077;-67
2022/01/12 05:30:34;;;;;;;466.30;17.90;;;2.50;99.90;;;;;;4931351;29;20422;-66
2022/01/12 05:33:00;;;;;;;296.60;14.90;;;2.50;99.90;;;;;;4929415;29;20059;-65
2022/01/12 05:35:31;;;;;;;487.60;17.95;;;2.40;99.90;;;;;;4947918;29;20047;-65
2022/01/12 05:38:02;;;;;;;367.35;15.15;;;2.40;99.90;;;;;;4947555;28;20058;-65
2022/01/12 05:40:28;;;;;;;301.23;14.38;;;2.40;99.90;;;;;;4947056;29;20126;-65
2022/01/12 05:42:56;;;;;;;221.35;11.88;;;2.40;99.90;;;;;;4930775;29;20051;-66
2022/01/12 05:45:22;;;;;;;275.60;15.52;;;2.40;99.90;;;;;;4948204;28;20102;-65
2022/01/12 05:50:17;;;;;;;180.23;11.63;;;2.30;99.90;;;;;;4950451;29;20557;-65
2022/01/12 05:52:42;;;;;;;152.98;11.15;;;2.30;99.90;;;;;;4933816;29;20460;-68
2022/01/12 05:55:10;;;;;;;169.77;10.68;;;2.20;99.90;;;;;;4914479;29;20051;-65
2022/01/12 05:57:36;;;;;;;203.27;12.02;;;2.20;99.90;;;;;;4930856;29;20886;-65
2022/01/12 06:00:05;;;;;;;115.75;10.38;;;2.20;99.90;;;;;;4930236;29;20086;-65
2022/01/12 06:02:31;;;;;;;145.07;10.98;;;2.20;99.90;;;;;;4930900;29;20051;-65
2022/01/12 06:04:57;;;;;;;196.73;12.23;;;2.10;99.90;;;;;;4931175;29;20398;-65
2022/01/12 06:07:23;;;;;;;105.97;10.50;;;2.10;99.90;;;;;;4931035;29;20488;-65
2022/01/12 06:09:49;;;;;;;148.27;11.23;;;2.00;99.90;;;;;;4931678;29;20549;-65
2022/01/12 06:12:15;;;;;;;98.53;10.38;;;2.00;99.90;;;;;;4914332;29;20071;-65
2022/01/12 06:14:41;;;;;;;146.75;10.75;;;2.00;99.90;;;;;;4913563;29;20415;-65
2022/01/12 06:17:08;;;;;;;86.38;8.65;;;2.00;99.90;;;;;;4930514;29;20099;-65
2022/01/12 06:19:34;;;;;;;62.90;8.90;;;2.00;99.90;;;;;;4929794;29;20499;-66
2022/01/12 06:22:00;;;;;;;115.60;9.63;;;1.90;99.90;;;;;;4931802;29;20048;-65
2022/01/12 06:24:25;;;;;;;160.75;11.30;;;1.90;99.90;;;;;;4913402;29;20051;-65
2022/01/12 06:26:52;;;;;;;304.10;14.57;;;1.90;99.90;;;;;;4915042;29;20505;-65
2022/01/12 06:31:47;;;;;;;302.95;14.18;;;1.90;99.90;;;;;;4930771;29;20233;-65
2022/01/12 06:34:13;;;;;;;274.75;11.77;;;1.90;99.90;;;;;;4931405;29;20493;-65
2022/01/12 06:36:39;;;;;;;555.13;22.17;;;1.80;99.90;;;;;;4930159;29;20075;-66
2022/01/12 06:39:11;;;;;;;416.25;12.98;;;1.70;99.90;;;;;;4930662;29;20513;-65
2022/01/12 06:41:38;;;;;;;443.83;15.38;;;1.70;99.90;;;;;;4930321;29;20123;-65
2022/01/12 06:44:06;;;;;;;403.70;14.27;;;1.60;99.90;;;;;;4930840;29;20134;-65
2022/01/12 06:46:34;;;;;;;445.13;16.38;;;1.50;99.90;;;;;;4929736;29;20087;-65
2022/01/12 06:49:00;;;;;;;510.52;20.00;;;1.60;99.90;;;;;;4930213;29;20114;-66
2022/01/12 06:51:25;;;;;;;384.35;17.38;;;1.60;99.90;;;;;;4937721;29;20055;-65
2022/01/12 06:53:53;;;;;;;328.95;12.45;;;1.60;99.90;;;;;;4948182;29;20055;-65
2022/01/12 06:56:19;;;;;;;275.42;10.77;;;1.60;99.90;;;;;;4950027;28;20126;-65
2022/01/12 06:58:45;;;;;;;366.05;16.48;;;1.60;99.90;;;;;;4931122;29;20482;-65
2022/01/12 07:01:11;;;;;;;589.38;24.45;;;1.50;99.90;;;;;;4949531;29;20043;-65
2022/01/12 07:03:37;;;;;;;490.95;19.17;;;1.60;99.90;;;;;;4949401;29;20053;-65
2022/01/12 07:06:04;;;;;;;740.65;23.45;;;1.60;99.90;;;;;;4932430;29;20039;-65
2022/01/12 07:08:32;;;;;;;368.20;12.98;;;1.60;99.90;;;;;;4949736;29;20062;-66
2022/01/12 07:10:58;;;;;;;247.27;10.27;;;1.60;99.90;;;;;;4942775;28;20043;-65
2022/01/12 07:13:24;;;;;;;294.02;10.07;;;1.50;99.90;;;;;;4949855;29;20051;-65
2022/01/12 07:15:50;;;;;;;298.90;12.50;;;1.60;99.90;;;;;;4948716;29;20486;-65
2022/01/12 07:18:16;;;;;;;276.88;10.35;;;1.50;99.90;;;;;;4950061;29;20090;-65
2022/01/12 07:20:42;;;;;;;193.05;9.07;;;1.50;99.90;;;;;;4931430;29;20043;-65
2022/01/12 07:23:11;;;;;;;176.13;8.18;;;1.40;99.90;;;;;;4949076;29;20051;-65
2022/01/12 07:25:37;;;;;;;199.45;8.25;;;1.40;99.90;;;;;;4948875;28;20085;-65
2022/01/12 07:28:03;;;;;;;150.82;7.63;;;1.40;99.90;;;;;;4931281;29;20075;-65
2022/01/12 07:30:29;;;;;;;156.05;7.00;;;1.40;99.90;;;;;;4932166;29;20039;-65
2022/01/12 07:32:54;;;;;;;161.88;8.57;;;1.40;99.90;;;;;;4946365;28;20355;-65
2022/01/12 07:35:20;;;;;;;119.45;7.22;;;1.40;99.90;;;;;;4932080;29;20070;-65
2022/01/12 07:37:47;;;;;;;102.95;6.35;;;1.30;99.90;;;;;;4948288;29;20493;-66
2022/01/12 07:40:13;;;;;;;91.60;7.65;;;1.30;99.90;;;;;;4947765;29;20050;-67
2022/01/12 07:42:39;;;;;;;158.63;7.90;;;1.30;99.90;;;;;;4948142;28;20127;-66
2022/01/12 07:45:05;;;;;;;137.68;8.93;;;1.30;99.90;;;;;;4948220;29;20047;-66
2022/01/12 07:47:32;;;;;;;78.70;6.38;;;1.30;99.90;;;;;;4949289;29;20132;-65
2022/01/12 07:49:59;;;;;;;90.00;6.57;;;1.30;99.90;;;;;;4946968;29;20047;-66
2022/01/12 07:52:26;;;;;;;112.35;6.10;;;1.20;99.90;;;;;;4948811;28;20454;-65
2022/01/12 07:54:52;;;;;;;79.78;6.30;;;1.20;99.90;;;;;;4931203;28;20055;-65
2022/01/12 07:57:18;;;;;;;96.82;6.88;;;1.10;99.90;;;;;;4931027;29;20391;-66
2022/01/12 07:59:44;;;;;;;78.10;7.22;;;1.10;99.90;;;;;;4948400;28;20174;-66
2022/01/12 08:02:11;;;;;;;102.68;5.70;;;1.10;99.90;;;;;;4932725;28;20520;-65
2022/01/12 08:04:38;;;;;;;126.18;6.10;;;1.00;99.90;;;;;;4955213;28;20047;-66
2022/01/12 08:07:04;;;;;;;151.55;7.53;;;1.00;99.90;;;;;;4949485;28;20050;-65
2022/01/12 08:09:30;;;;;;;188.75;7.53;;;1.00;99.90;;;;;;4957569;28;20039;-65
2022/01/12 08:11:56;;;;;;;154.60;6.63;;;1.00;99.90;;;;;;4941493;28;20054;-66
2022/01/12 08:14:22;;;;;;;131.18;6.40;;;1.00;99.90;;;;;;4959502;28;20466;-65
2022/01/12 08:16:48;;;;;;;91.18;5.47;;;1.00;99.90;;;;;;4957248;28;20098;-65
2022/01/12 08:19:19;;;;;;;63.13;4.20;;;1.00;99.90;;;;;;4953000;28;20040;-65
2022/01/12 08:21:45;;;;;;;98.35;6.00;;;1.10;99.90;;;;;;4949404;28;20039;-67
2022/01/12 08:24:12;;;;;;;104.75;5.95;;;1.10;99.90;;;;;;4930224;28;20062;-65
2022/01/12 08:26:39;;;;;;;98.15;6.30;;;1.10;99.90;;;;;;4943855;28;20046;-64
2022/01/12 08:29:05;;;;;;;76.97;5.75;;;1.10;99.90;;;;;;4948263;28;20101;-65
2022/01/12 08:31:31;;;;;;;135.40;7.55;;;1.10;99.90;;;;;;4951435;28;20126;-69
2022/01/12 08:33:56;;;;;;;41.60;3.97;;;1.10;99.90;;;;;;4945831;28;20626;-65
2022/01/12 08:36:22;;;;;;;78.10;7.15;;;1.10;99.90;;;;;;4933724;28;20057;-67
2022/01/12 08:38:48;;;;;;;85.90;5.80;;;1.10;99.90;;;;;;4929684;28;20047;-65
2022/01/12 08:41:14;;;;;;;59.95;5.10;;;1.20;99.90;;;;;;4930105;28;20439;-66
2022/01/12 08:43:40;;;;;;;72.95;4.85;;;1.20;99.90;;;;;;4946907;28;20051;-65
2022/01/12 08:46:06;;;;;;;73.15;6.20;;;1.20;99.90;;;;;;4949639;28;20039;-65
2022/01/12 08:48:32;;;;;;;104.18;6.72;;;1.20;99.90;;;;;;4946876;28;20497;-65
2022/01/12 08:50:58;;;;;;;70.15;5.28;;;1.30;99.90;;;;;;4943126;28;20059;-65
2022/01/12 08:53:24;;;;;;;87.85;5.80;;;1.30;99.90;;;;;;4924731;29;20399;-67
2022/01/12 08:55:50;;;;;;;85.43;5.43;;;1.30;99.90;;;;;;4922794;29;20074;-66
2022/01/12 08:58:15;;;;;;;93.03;5.60;;;1.40;99.90;;;;;;4923761;29;20118;-65
2022/01/12 09:00:41;;;;;;;85.43;4.68;;;1.30;99.90;;;;;;4911260;29;20157;-65
2022/01/12 09:03:07;;;;;;;74.70;5.32;;;1.40;99.90;;;;;;4923688;29;20501;-65
2022/01/12 09:05:33;;;;;;;61.42;4.30;;;1.40;99.90;;;;;;4920959;29;20044;-65
2022/01/12 09:07:59;;;;;;;100.35;5.72;;;1.50;99.90;;;;;;4908896;29;20048;-65
2022/01/12 09:10:25;;;;;;;101.82;5.57;;;1.50;99.90;;;;;;4912654;29;20048;-65
2022/01/12 09:12:51;;;;;;;97.68;5.13;;;1.60;99.90;;;;;;4882228;29;20135;-65
2022/01/12 09:15:17;;;;;;;45.20;4.35;;;1.60;99.90;;;;;;4894856;29;20127;-65
2022/01/12 09:17:44;;;;;;;52.35;4.00;;;1.70;99.90;;;;;;4896162;29;20122;-73
2022/01/12 09:20:11;;;;;;;93.60;4.32;;;1.70;99.90;;;;;;4915902;29;20055;-66
2022/01/12 09:22:40;;;;;;;60.22;4.32;;;1.70;99.90;;;;;;4910139;29;20077;-65
2022/01/12 09:25:07;;;;;;;76.07;4.63;;;1.70;99.90;;;;;;4914607;29;20126;-65
2022/01/12 09:27:33;;;;;;;40.88;4.07;;;1.80;99.90;;;;;;4913384;29;20052;-65
2022/01/12 09:29:59;;;;;;;39.47;3.65;;;1.80;99.90;;;;;;4915743;29;20075;-65
2022/01/12 09:32:25;;;;;;;61.85;5.32;;;1.90;99.90;;;;;;4916133;29;20071;-65
2022/01/12 09:34:51;;;;;;;60.72;4.78;;;1.90;99.90;;;;;;4919024;29;20508;-65
2022/01/12 09:37:16;;;;;;;120.40;5.93;;;1.90;99.90;;;;;;4917116;29;20036;-65
2022/01/12 09:39:42;;;;;;;112.82;5.82;;;2.00;99.90;;;;;;4919243;29;20419;-65
2022/01/12 09:42:08;;;;;;;117.43;6.32;;;2.10;99.90;;;;;;4916416;29;20522;-66
2022/01/12 09:44:37;;;;;;;128.05;6.53;;;2.10;99.90;;;;;;4924549;29;20040;-65
2022/01/12 09:47:05;;;;;;;86.47;6.57;;;2.20;99.90;;;;;;4923622;29;20047;-65
2022/01/12 09:49:31;;;;;;;105.72;6.35;;;2.20;99.90;;;;;;4922841;29;20106;-65
2022/01/12 09:51:58;;;;;;;162.05;7.32;;;2.30;99.90;;;;;;4925551;29;20048;-65
2022/01/12 09:54:26;;;;;;;132.48;7.65;;;2.30;99.90;;;;;;4909978;29;20096;-65
2022/01/12 09:56:52;;;;;;;145.68;7.82;;;2.40;99.90;;;;;;4913215;29;20109;-65
2022/01/12 09:59:18;;;;;;;111.57;7.50;;;2.50;99.90;;;;;;4914123;29;20047;-65
2022/01/12 10:01:45;;;;;;;157.65;8.43;;;2.60;99.90;;;;;;4927746;29;20359;-65
2022/01/12 10:04:16;;;;;;;138.23;8.68;;;2.60;99.90;;;;;;4929562;29;20055;-65
2022/01/12 10:06:46;;;;;;;278.38;12.07;;;2.70;99.90;;;;;;4930109;29;20043;-65
2022/01/12 10:09:13;;;;;;;218.98;8.90;;;2.80;99.90;;;;;;4930007;29;20047;-65
2022/01/12 10:11:52;;;;;;;117.45;6.75;;;2.80;99.90;;;;;;4930577;29;20044;-66
2022/01/12 10:14:18;;;;;;;79.55;4.72;;;2.90;99.90;;;;;;4931209;29;20066;-73
2022/01/12 10:16:55;;;;;;;215.88;7.40;;;2.90;99.90;;;;;;4928270;29;20290;-65
2022/01/12 10:19:29;;;;;;;146.88;5.97;;;2.90;99.90;;;;;;4931109;29;20517;-65
2022/01/12 10:21:56;;;;;;;208.18;8.20;;;2.90;99.90;;;;;;4925983;29;20062;-65
2022/01/12 10:24:24;;;;;;;220.77;9.52;;;3.10;99.90;;;;;;4927023;29;20430;-65
2022/01/12 10:26:51;;;;;;;281.25;10.02;;;3.10;99.90;;;;;;4930431;29;20054;-65
2022/01/12 10:29:21;;;;;;;161.30;8.57;;;3.20;99.90;;;;;;4929481;29;20098;-65
2022/01/12 10:32:04;;;;;;;140.70;6.38;;;3.30;99.90;;;;;;4929474;29;20039;-65
2022/01/12 10:34:39;;;;;;;146.23;6.55;;;3.30;99.90;;;;;;4928146;29;20110;-69
2022/01/12 10:37:08;;;;;;;229.80;7.82;;;3.40;99.90;;;;;;4931210;29;20071;-65
2022/01/12 10:39:37;;;;;;;197.53;9.50;;;3.50;99.90;;;;;;4930009;29;20463;-65
2022/01/12 10:42:09;;;;;;;121.03;6.80;;;3.50;99.90;;;;;;4928176;29;20052;-66
2022/01/12 10:44:40;;;;;;;116.38;6.80;;;3.60;99.90;;;;;;4929545;29;20052;-65
2022/01/12 10:47:20;;;;;;;118.95;6.15;;;3.60;99.90;;;;;;4928692;29;20047;-65
2022/01/12 10:49:56;;;;;;;93.03;5.38;;;3.60;99.90;;;;;;4928244;29;20748;-65
2022/01/12 10:52:34;;;;;;;100.22;5.88;;;3.60;99.90;;;;;;4920037;28;20048;-65
2022/01/12 10:55:06;;;;;;;103.30;6.88;;;3.70;99.90;;;;;;4945829;28;20138;-65
2022/01/12 10:57:38;;;;;;;123.22;6.93;;;3.80;99.90;;;;;;4945322;28;20036;-65
2022/01/12 11:00:22;;;;;;;95.35;6.30;;;3.80;99.90;;;;;;4949769;28;20047;-65
2022/01/12 11:03:00;;;;;;;88.82;6.50;;;3.80;99.90;;;;;;4947238;28;20051;-77
2022/01/12 11:05:29;;;;;;;86.30;6.38;;;3.90;99.90;;;;;;4957635;28;20043;-65
2022/01/12 11:07:56;;;;;;;102.25;6.63;;;4.00;99.90;;;;;;4947980;28;20497;-65
2022/01/12 11:10:23;;;;;;;56.10;6.07;;;4.00;99.90;;;;;;4931969;29;20494;-65
2022/01/12 11:12:51;;;;;;;33.08;5.72;;;4.10;99.90;;;;;;4940573;28;20039;-65
2022/01/12 11:15:19;;;;;;;60.50;6.75;;;4.20;99.90;;;;;;4924357;29;20109;-65
2022/01/12 11:17:47;;;;;;;48.05;7.18;;;4.30;99.90;;;;;;4947540;28;20031;-66
2022/01/12 11:20:20;;;;;;;46.58;6.38;;;4.40;99.90;;;;;;4944759;28;20081;-65
2022/01/12 11:23:09;;;;;;;59.25;7.90;;;4.40;99.90;;;;;;4927560;28;20039;-72
2022/01/12 11:25:45;;;;;;;50.75;6.97;;;4.50;99.90;;;;;;4946556;28;20513;-65
2022/01/12 11:28:25;;;;;;;52.50;6.72;;;4.50;99.90;;;;;;4948397;28;20047;-65
2022/01/12 11:30:50;;;;;;;94.75;8.07;;;4.40;99.90;;;;;;4947314;28;20087;-81
2022/01/12 11:33:22;;;;;;;62.63;6.53;;;4.40;99.90;;;;;;4930814;29;20486;-65
2022/01/12 11:35:51;;;;;;;58.17;6.35;;;4.50;99.90;;;;;;4950120;28;20109;-72
2022/01/12 11:38:22;;;;;;;22.95;6.22;;;4.50;99.90;;;;;;4948012;28;20039;-70
2022/01/12 11:40:50;;;;;;;38.47;7.80;;;4.50;99.90;;;;;;4944148;28;20208;-73
2022/01/12 11:43:30;;;;;;;43.42;7.10;;;4.60;99.90;;;;;;4946070;28;20072;-66
2022/01/12 11:46:04;;;;;;;70.35;9.50;;;4.70;99.90;;;;;;4948398;28;20047;-66
2022/01/12 11:48:36;;;;;;;38.63;7.70;;;4.80;99.90;;;;;;4947120;28;20410;-70
2022/01/12 11:51:02;;;;;;;27.13;7.53;;;4.80;99.90;;;;;;4932058;28;20075;-66
2022/01/12 11:53:31;;;;;;;36.47;6.65;;;4.90;99.90;;;;;;4928474;29;20126;-65
2022/01/12 11:56:10;;;;;;;32.80;6.38;;;4.90;99.90;;;;;;4908687;29;20445;-69
2022/01/12 11:58:50;;;;;;;29.02;6.70;;;4.90;99.90;;;;;;4913116;29;20039;-67
2022/01/12 12:01:16;;;;;;;21.95;7.25;;;5.00;99.90;;;;;;4920385;29;20377;-65
2022/01/12 12:03:41;;;;;;;19.25;6.00;;;5.00;99.90;;;;;;4928044;29;20035;-66
2022/01/12 12:06:20;;;;;;;32.38;6.15;;;5.10;99.90;;;;;;4895538;29;20051;-66
2022/01/12 12:09:04;;;;;;;35.83;7.50;;;5.20;99.90;;;;;;4911501;29;20056;-68
2022/01/12 12:11:31;;;;;;;30.40;8.32;;;5.20;99.90;;;;;;4929310;29;20051;-65
2022/01/12 12:14:05;;;;;;;23.55;6.20;;;5.40;99.90;;;;;;4926429;29;20039;-65
2022/01/12 12:16:31;;;;;;;40.03;8.23;;;5.40;99.90;;;;;;4913478;29;20055;-65
2022/01/12 12:18:57;;;;;;;24.13;7.25;;;5.30;99.90;;;;;;4927531;29;20056;-65
2022/01/12 12:21:23;;;;;;;32.08;7.47;;;5.30;99.90;;;;;;4912844;29;20062;-65
2022/01/12 12:23:50;;;;;;;41.45;8.43;;;5.30;99.90;;;;;;4910702;29;20122;-65
2022/01/12 12:26:19;;;;;;;32.13;7.82;;;5.30;99.90;;;;;;4927568;29;20063;-65
2022/01/12 12:28:55;;;;;;;29.98;8.65;;;5.30;99.90;;;;;;4926990;29;20491;-65
2022/01/12 12:31:25;;;;;;;36.17;8.88;;;5.40;99.90;;;;;;4910795;29;20052;-66
2022/01/12 12:34:05;;;;;;;24.58;8.40;;;5.40;99.90;;;;;;4927832;29;20651;-69
2022/01/12 12:36:32;;;;;;;22.63;7.43;;;5.40;99.90;;;;;;4928394;29;20054;-65
2022/01/12 12:39:14;;;;;;;34.42;9.05;;;5.40;99.90;;;;;;4927309;29;20158;-65
2022/01/12 12:41:45;;;;;;;31.83;7.50;;;5.40;99.90;;;;;;4927365;29;20130;-66
2022/01/12 12:44:27;;;;;;;25.88;7.28;;;5.50;99.90;;;;;;4926402;29;20430;-66
2022/01/12 12:47:05;;;;;;;25.38;7.07;;;5.50;99.90;;;;;;4911688;29;20079;-65
2022/01/12 12:49:31;;;;;;;23.67;8.02;;;5.40;99.90;;;;;;4922498;29;20050;-65
2022/01/12 12:52:04;;;;;;;31.58;9.55;;;5.40;99.90;;;;;;4940939;28;20055;-66
2022/01/12 12:54:30;;;;;;;27.95;8.05;;;5.40;99.90;;;;;;4942732;28;20055;-67
2022/01/12 12:57:10;;;;;;;35.28;7.57;;;5.40;99.90;;;;;;4956928;28;20074;-65
2022/01/12 12:59:36;;;;;;;25.13;7.25;;;5.40;99.90;;;;;;4942290;29;20055;-69
2022/01/12 13:02:14;;;;;;;37.90;9.00;;;5.40;99.90;;;;;;4944816;28;20064;-66
2022/01/12 13:04:40;;;;;;;39.33;9.73;;;5.40;99.90;;;;;;4968862;28;20460;-65
2022/01/12 13:07:18;;;;;;;29.98;8.40;;;5.40;99.90;;;;;;4941341;29;20174;-65
2022/01/12 13:09:45;;;;;;;37.15;10.23;;;5.40;99.90;;;;;;4952111;28;20047;-65
2022/01/12 13:12:12;;;;;;;34.70;9.63;;;5.40;99.90;;;;;;4934370;29;20479;-65
2022/01/12 13:14:46;;;;;;;38.47;10.13;;;5.50;99.90;;;;;;4942842;28;20521;-69
2022/01/12 13:17:14;;;;;;;36.47;10.90;;;5.50;99.90;;;;;;4951401;28;20046;-65
2022/01/12 13:22:39;;;;;;;43.50;10.95;;;5.50;99.90;;;;;;4943711;28;20066;-71
2022/01/12 13:25:09;;;;;;;44.05;11.85;;;5.50;99.90;;;;;;4938660;28;20492;-65
2022/01/12 13:27:36;;;;;;;30.23;9.60;;;5.50;99.90;;;;;;4949763;28;20528;-76
2022/01/12 13:30:06;;;;;;;37.53;9.38;;;5.50;99.90;;;;;;4949724;28;20039;-64
2022/01/12 13:32:32;;;;;;;45.20;10.90;;;5.50;99.90;;;;;;4933548;29;20182;-65
2022/01/12 13:35:02;;;;;;;35.05;10.98;;;5.50;99.90;;;;;;4932012;29;20551;-65
2022/01/12 13:40:14;;;;;;;33.72;10.00;;;5.50;99.90;;;;;;4939780;26;20106;-64
2022/01/12 13:43:00;;;;;;;37.92;10.18;;;5.60;99.90;;;;;;4916070;29;20071;-64
2022/01/12 13:45:40;;;;;;;37.35;10.40;;;5.60;99.90;;;;;;4948029;28;20065;-64
2022/01/12 13:48:14;;;;;;;29.38;9.73;;;5.60;99.90;;;;;;4930962;29;20082;-64
2022/01/12 13:50:45;;;;;;;25.20;9.18;;;5.60;99.90;;;;;;4933927;29;20055;-64
2022/01/12 13:53:12;;;;;;;27.35;8.43;;;5.60;99.90;;;;;;4951725;28;20047;-64
2022/01/12 13:55:54;;;;;;;32.47;9.35;;;5.60;99.90;;;;;;4934451;28;20043;-64
2022/01/12 13:58:26;;;;;;;25.65;8.63;;;5.50;99.90;;;;;;4952428;28;20129;-64
2022/01/12 14:01:00;;;;;;;28.77;10.20;;;5.50;99.90;;;;;;4950796;28;20063;-64